Time;durP1;ratioP1;P1;durP2;ratioP2;P2;SDS_P1;SDS_P2;PMS_P1;PMS_P2;Temp;Humidity;BMP_temperature;BMP_pressure;BME280_temperature;BME280_humidity;BME280_pressure;Samples;Min_cycle;Max_cycle;Signal;HPM_P1;HPM_P2
2024/04/10 00:00:59;;;;;;;13.20;8.30;;;;;;;15.50;57.02;100769.84;108622;1234;64559;-59
2024/04/10 00:03:28;;;;;;;11.70;8.30;;;;;;;15.45;57.06;100768.65;108778;1232;62482;-61
2024/04/10 00:05:59;;;;;;;10.40;7.60;;;;;;;15.40;57.18;100767.35;108811;1232;61226;-61
2024/04/10 00:08:26;;;;;;;11.30;8.20;;;;;;;15.36;57.14;100771.30;108706;1232;64504;-60
2024/04/10 00:10:53;;;;;;;11.50;8.00;;;;;;;15.31;56.88;100770.04;108125;1232;61567;-61
2024/04/10 00:13:21;;;;;;;10.50;7.70;;;;;;;15.25;56.95;100773.02;108179;1235;63895;-61
2024/04/10 00:15:57;;;;;;;9.90;7.50;;;;;;;15.19;57.13;100775.02;108310;1232;61156;-61
2024/04/10 00:18:25;;;;;;;11.00;7.30;;;;;;;15.19;57.17;100778.16;108848;1233;61242;-61
2024/04/10 00:20:52;;;;;;;10.50;7.70;;;;;;;15.22;57.26;100779.82;108042;1241;165045;-58
2024/04/10 00:26:09;;;;;;;14.70;8.00;;;;;;;14.88;58.37;100779.27;101954;1292;602606;-62
2024/04/10 00:28:36;;;;;;;11.80;8.20;;;;;;;15.10;57.64;100777.99;104366;1266;59808;-60
2024/04/10 00:31:03;;;;;;;12.60;7.80;;;;;;;15.09;57.56;100783.88;104348;1267;59868;-55
2024/04/10 00:33:30;;;;;;;13.60;7.30;;;;;;;15.09;57.80;100784.83;105025;1266;64268;-56
2024/04/10 00:36:01;;;;;;;11.10;7.80;;;;;;;15.06;58.09;100785.71;104980;1269;61671;-55
2024/04/10 00:38:29;;;;;;;10.60;7.90;;;;;;;15.05;58.42;100785.27;104839;1264;156420;-56
2024/04/10 00:41:01;;;;;;;11.50;7.90;;;;;;;15.07;58.62;100783.36;105043;1264;59688;-56
2024/04/10 00:43:30;;;;;;;11.00;7.80;;;;;;;15.09;58.88;100787.02;104530;1264;60038;-57
2024/04/10 00:46:08;;;;;;;10.30;8.20;;;;;;;15.11;58.99;100787.44;104993;1264;64086;-55
2024/04/10 00:48:38;;;;;;;11.70;7.30;;;;;;;15.09;58.99;100793.02;104608;1264;61623;-55
2024/04/10 00:51:26;;;;;;;10.30;8.20;;;;;;;15.06;59.08;100788.17;104840;1263;63932;-55
2024/04/10 00:53:53;;;;;;;10.20;8.60;;;;;;;15.03;59.02;100785.25;104386;1267;60469;-55
2024/04/10 00:56:20;;;;;;;10.10;7.90;;;;;;;15.00;58.91;100786.99;105062;1257;60441;-55
2024/04/10 00:58:52;;;;;;;10.90;7.70;;;;;;;14.94;58.83;100785.04;105077;1259;65146;-54
2024/04/10 01:01:19;;;;;;;8.90;7.20;;;;;;;14.90;58.75;100786.83;105111;1254;61752;-55
2024/04/10 01:03:46;;;;;;;10.00;8.10;;;;;;;14.90;58.67;100790.24;105738;1255;63913;-55
2024/04/10 01:06:13;;;;;;;10.20;7.40;;;;;;;14.89;58.57;100790.27;105000;1257;60474;-55
2024/04/10 01:08:41;;;;;;;10.90;7.70;;;;;;;14.85;58.53;100794.01;105331;1257;60465;-55
2024/04/10 01:11:07;;;;;;;11.20;7.90;;;;;;;14.79;58.62;100792.09;104996;1257;74275;-55
2024/04/10 01:13:35;;;;;;;10.90;8.60;;;;;;;14.73;58.58;100793.21;105079;1257;61670;-55
2024/04/10 01:16:02;;;;;;;11.50;8.50;;;;;;;14.67;58.51;100787.33;108816;1256;64005;-55
2024/04/10 01:18:29;;;;;;;11.30;8.50;;;;;;;14.62;58.36;100784.79;105587;1257;60462;-55
2024/04/10 01:20:56;;;;;;;9.30;7.60;;;;;;;14.61;58.53;100782.98;105547;1257;60902;-55
2024/04/10 01:23:23;;;;;;;11.20;7.60;;;;;;;14.61;58.76;100785.92;105094;1260;66111;-56
2024/04/10 01:25:50;;;;;;;10.30;7.60;;;;;;;14.64;58.77;100787.10;105805;1256;65178;-54
2024/04/10 01:28:17;;;;;;;10.80;8.70;;;;;;;14.66;58.90;100790.95;105106;1259;64569;-55
2024/04/10 01:30:44;;;;;;;10.60;8.40;;;;;;;14.65;58.98;100793.81;104988;1256;60555;-54
2024/04/10 01:33:11;;;;;;;10.60;8.00;;;;;;;14.64;58.86;100797.50;104943;1258;60043;-56
2024/04/10 01:35:38;;;;;;;10.40;8.50;;;;;;;14.62;58.66;100797.48;105333;1258;65248;-54
2024/04/10 01:38:05;;;;;;;10.90;8.20;;;;;;;14.59;58.59;100796.69;105000;1257;61667;-55
2024/04/10 01:40:32;;;;;;;13.70;8.50;;;;;;;14.56;58.49;100799.09;105436;1256;64030;-53
2024/04/10 01:42:59;;;;;;;10.10;8.80;;;;;;;14.49;58.33;100799.71;105071;1257;60526;-54
2024/04/10 01:45:26;;;;;;;10.60;8.30;;;;;;;14.45;58.26;100801.08;105020;1258;61905;-55
2024/04/10 01:47:52;;;;;;;10.60;8.50;;;;;;;14.44;58.38;100805.98;105734;1256;63988;-55
2024/04/10 01:50:19;;;;;;;11.70;8.30;;;;;;;14.45;58.59;100808.58;105006;1258;62211;-55
2024/04/10 01:52:46;;;;;;;10.20;8.80;;;;;;;14.45;58.68;100806.07;105842;1258;64574;-55
2024/04/10 01:55:14;;;;;;;9.90;8.60;;;;;;;14.44;58.76;100804.56;104955;1256;60546;-55
2024/04/10 01:57:44;;;;;;;10.50;9.40;;;;;;;14.43;58.90;100803.91;105036;1260;60527;-55
2024/04/10 02:00:11;;;;;;;15.70;9.00;;;;;;;14.41;59.03;100804.70;105271;1256;65202;-54
2024/04/10 02:02:39;;;;;;;12.40;9.50;;;;;;;14.37;59.16;100804.27;105360;1260;61999;-56
2024/04/10 02:05:06;;;;;;;13.30;9.50;;;;;;;14.35;59.35;100804.52;105324;1258;64675;-54
2024/04/10 02:07:33;;;;;;;12.90;9.20;;;;;;;14.34;59.37;100805.84;104896;1259;60562;-55
2024/04/10 02:09:59;;;;;;;9.90;8.50;;;;;;;14.38;59.39;100806.92;105652;1257;60588;-57
2024/04/10 02:12:27;;;;;;;12.00;9.20;;;;;;;14.41;59.31;100809.42;106441;1257;65278;-56
2024/04/10 02:14:53;;;;;;;12.90;9.30;;;;;;;14.43;59.32;100814.50;105895;1256;61373;-57
2024/04/10 02:17:20;;;;;;;10.60;8.90;;;;;;;14.42;59.39;100816.59;105786;1257;64122;-55
2024/04/10 02:19:50;;;;;;;10.10;8.60;;;;;;;14.38;59.28;100809.32;104873;1256;60628;-55
2024/04/10 02:22:17;;;;;;;11.70;9.10;;;;;;;14.38;59.28;100807.58;105044;1254;60450;-54
2024/04/10 02:24:44;;;;;;;12.20;9.10;;;;;;;14.36;59.36;100807.23;104999;1257;65187;-55
2024/04/10 02:27:10;;;;;;;10.50;9.00;;;;;;;14.31;59.24;100806.24;105432;1257;61709;-55
2024/04/10 02:29:37;;;;;;;11.10;9.10;;;;;;;14.29;59.23;100811.90;105036;1257;63925;-54
2024/04/10 02:32:04;;;;;;;11.70;9.20;;;;;;;14.29;59.43;100814.33;104973;1257;60482;-55
2024/04/10 02:34:32;;;;;;;10.10;8.60;;;;;;;14.30;59.43;100810.70;104775;1256;60396;-54
2024/04/10 02:36:58;;;;;;;13.10;9.10;;;;;;;14.30;59.45;100814.66;105022;1257;68130;-54
2024/04/10 02:39:27;;;;;;;12.00;9.20;;;;;;;14.26;59.64;100817.63;105765;1257;61558;-56
2024/04/10 02:41:54;;;;;;;13.20;9.70;;;;;;;14.22;59.48;100816.73;105642;1257;64040;-54
2024/04/10 02:44:21;;;;;;;12.00;9.40;;;;;;;14.17;59.45;100814.19;105057;1257;60498;-54
2024/04/10 02:46:48;;;;;;;11.40;9.00;;;;;;;14.13;59.56;100813.67;105018;1257;60546;-54
2024/04/10 02:49:15;;;;;;;11.10;7.90;;;;;;;14.11;59.75;100810.99;105226;1260;65164;-54
2024/04/10 02:51:42;;;;;;;10.50;7.90;;;;;;;14.13;59.92;100816.88;105253;1256;61841;-55
2024/04/10 02:54:09;;;;;;;12.60;8.80;;;;;;;14.14;59.98;100819.91;104983;1257;63844;-55
2024/04/10 02:56:35;;;;;;;11.20;8.50;;;;;;;14.15;59.96;100821.58;104768;1256;59647;-55
2024/04/10 02:59:03;;;;;;;11.10;8.40;;;;;;;14.15;59.92;100819.30;105044;1256;60526;-55
2024/04/10 03:01:30;;;;;;;11.30;8.70;;;;;;;14.16;59.72;100814.98;105606;1256;65688;-54
2024/04/10 03:03:57;;;;;;;13.10;8.60;;;;;;;14.12;59.59;100812.86;105596;1257;61394;-54
2024/04/10 03:06:24;;;;;;;11.80;8.80;;;;;;;14.06;59.45;100814.06;105794;1257;64072;-60
2024/04/10 03:08:51;;;;;;;11.80;9.10;;;;;;;14.03;59.45;100813.72;105304;1253;60542;-60
2024/04/10 03:11:18;;;;;;;11.40;9.00;;;;;;;14.03;59.60;100813.48;106357;1253;60483;-61
2024/04/10 03:13:45;;;;;;;9.60;8.20;;;;;;;14.05;59.48;100814.42;105557;1253;65650;-63
2024/04/10 03:16:12;;;;;;;11.10;8.10;;;;;;;14.04;59.44;100809.91;105054;1256;60472;-61
2024/04/10 03:18:39;;;;;;;11.90;8.70;;;;;;;14.01;59.53;100809.43;105323;1253;64086;-62
2024/04/10 03:21:06;;;;;;;11.40;8.40;;;;;;;13.97;59.77;100809.78;106348;1254;61187;-62
2024/04/10 03:23:33;;;;;;;11.00;8.90;;;;;;;13.93;60.00;100814.22;106600;1252;60472;-63
2024/04/10 03:26:04;;;;;;;10.40;8.20;;;;;;;13.84;60.17;100816.89;105282;1251;63685;-62
2024/04/10 03:28:33;;;;;;;11.00;7.90;;;;;;;13.77;60.36;100822.43;105875;1253;61496;-63
2024/04/10 03:31:03;;;;;;;8.40;7.00;;;;;;;13.77;60.34;100829.00;105870;1254;63773;-62
2024/04/10 03:33:30;;;;;;;13.50;7.90;;;;;;;13.79;60.22;100832.13;105821;1253;60527;-62
2024/04/10 03:35:58;;;;;;;11.20;8.90;;;;;;;13.82;60.18;100835.77;105346;1254;60315;-64
2024/04/10 03:38:25;;;;;;;13.60;9.80;;;;;;;13.81;60.12;100844.44;105432;1257;65050;-64
2024/04/10 03:40:52;;;;;;;14.40;10.40;;;;;;;13.79;60.19;100845.20;105993;1253;61674;-62
2024/04/10 03:43:19;;;;;;;14.90;11.30;;;;;;;13.76;60.07;100843.11;105322;1254;64094;-64
2024/04/10 03:45:49;;;;;;;13.60;10.60;;;;;;;13.76;60.05;100845.79;105330;1252;60456;-59
2024/04/10 03:48:16;;;;;;;14.40;11.10;;;;;;;13.75;60.11;100848.33;105428;1251;60559;-65
2024/04/10 03:50:43;;;;;;;14.30;11.20;;;;;;;13.73;59.96;100850.67;106227;1254;65166;-64
2024/04/10 03:53:10;;;;;;;12.50;9.50;;;;;;;13.73;59.93;100849.59;104967;1258;61570;-64
2024/04/10 03:55:38;;;;;;;12.40;8.30;;;;;;;13.76;59.90;100853.91;105372;1256;62464;-63
2024/04/10 03:58:05;;;;;;;16.30;9.80;;;;;;;13.80;59.99;100855.88;106666;1253;60370;-64
2024/04/10 04:00:34;;;;;;;13.80;10.00;;;;;;;13.83;60.20;100855.25;105953;1254;60521;-60
2024/04/10 04:03:01;;;;;;;11.60;10.00;;;;;;;13.85;60.47;100857.55;105839;1253;73835;-63
2024/04/10 04:05:31;;;;;;;12.30;9.80;;;;;;;13.89;60.61;100858.29;105724;1254;61703;-66
2024/04/10 04:07:58;;;;;;;18.00;12.00;;;;;;;13.91;60.56;100857.52;105388;1254;65619;-65
2024/04/10 04:10:25;;;;;;;15.30;11.60;;;;;;;13.94;60.78;100853.54;106942;1254;60544;-64
2024/04/10 04:12:51;;;;;;;13.50;10.50;;;;;;;14.02;60.86;100858.33;105395;1256;60447;-62
2024/04/10 04:15:19;;;;;;;12.20;9.90;;;;;;;14.12;60.94;100862.23;106219;1253;64886;-63
2024/04/10 04:17:46;;;;;;;12.40;9.80;;;;;;;14.22;60.96;100859.13;105401;1253;62186;-62
2024/04/10 04:20:13;;;;;;;13.10;9.70;;;;;;;14.29;60.94;100868.31;105488;1254;64313;-64
2024/04/10 04:22:40;;;;;;;13.70;10.20;;;;;;;14.35;61.16;100871.01;106142;1254;60312;-62
2024/04/10 04:25:07;;;;;;;13.20;10.40;;;;;;;14.40;61.21;100870.41;105171;1256;60469;-63
2024/04/10 04:27:34;;;;;;;13.00;10.20;;;;;;;14.45;61.37;100873.32;105416;1254;65409;-63
2024/04/10 04:30:02;;;;;;;16.30;9.80;;;;;;;14.53;61.22;100876.20;105788;1254;61583;-64
2024/04/10 04:32:31;;;;;;;14.80;10.50;;;;;;;14.59;61.18;100873.50;105845;1256;63829;-60
2024/04/10 04:34:58;;;;;;;13.70;11.60;;;;;;;14.66;61.06;100877.52;106665;1252;61253;-65
2024/04/10 04:37:25;;;;;;;21.20;11.00;;;;;;;14.70;61.11;100872.20;105299;1254;61244;-64
2024/04/10 04:39:53;;;;;;;15.00;11.00;;;;;;;14.76;61.19;100868.66;109232;1253;74660;-64
2024/04/10 04:42:20;;;;;;;14.10;10.40;;;;;;;14.83;61.14;100870.52;106843;1251;61736;-66
2024/04/10 04:44:47;;;;;;;12.60;10.60;;;;;;;14.87;60.92;100872.45;105484;1256;64117;-61
2024/04/10 04:47:15;;;;;;;10.40;8.70;;;;;;;14.90;60.86;100873.07;106140;1253;61202;-62
2024/04/10 04:49:43;;;;;;;12.70;9.10;;;;;;;14.97;60.70;100876.14;109299;1252;59222;-55
2024/04/10 04:52:09;;;;;;;12.90;8.80;;;;;;;15.06;60.55;100877.11;109254;1254;64724;-55
2024/04/10 04:54:36;;;;;;;11.60;8.30;;;;;;;15.14;60.28;100878.45;109296;1253;61538;-53
2024/04/10 04:57:03;;;;;;;10.90;8.80;;;;;;;15.22;60.20;100877.69;109270;1253;64072;-51
2024/04/10 04:59:30;;;;;;;12.30;9.60;;;;;;;15.32;60.01;100878.07;108533;1253;61368;-48
2024/04/10 05:01:57;;;;;;;13.90;9.10;;;;;;;15.43;59.83;100877.80;106726;1253;61189;-57
2024/04/10 05:07:10;;;;;;;12.90;8.30;;;;;;;15.56;59.33;100887.80;105394;1254;62357;-51
2024/04/10 05:09:37;;;;;;;13.10;7.80;;;;;;;15.68;59.22;100887.64;105731;1256;63964;-55
2024/04/10 05:12:04;;;;;;;9.70;8.10;;;;;;;15.84;58.97;100888.67;105764;1254;61231;-52
2024/04/10 05:14:31;;;;;;;11.10;8.40;;;;;;;15.96;58.86;100887.66;105885;1254;61133;-50
2024/04/10 05:16:59;;;;;;;11.30;8.50;;;;;;;16.08;58.81;100887.77;105882;1256;66458;-55
2024/04/10 05:19:26;;;;;;;11.00;7.80;;;;;;;16.20;58.56;100895.38;105962;1254;61646;-54
2024/04/10 05:21:53;;;;;;;12.50;8.80;;;;;;;16.30;58.22;100898.06;105414;1256;64041;-49
2024/04/10 05:24:23;;;;;;;9.50;7.90;;;;;;;16.42;57.88;100897.13;106272;1254;61265;-56
2024/04/10 05:26:50;;;;;;;9.10;7.40;;;;;;;16.51;57.52;100895.48;105474;1254;61375;-55
2024/04/10 05:29:17;;;;;;;12.00;7.40;;;;;;;16.61;56.83;100896.91;105491;1256;65829;-53
2024/04/10 05:31:44;;;;;;;11.20;7.80;;;;;;;16.66;56.12;100896.02;105558;1252;61816;-55
2024/04/10 05:34:11;;;;;;;10.10;7.30;;;;;;;16.72;55.88;100898.10;105457;1258;64197;-54
2024/04/10 05:36:39;;;;;;;11.10;6.80;;;;;;;16.83;55.48;100901.48;105643;1254;61384;-51
2024/04/10 05:39:06;;;;;;;12.10;7.80;;;;;;;16.95;54.69;100900.27;105861;1253;61356;-53
2024/04/10 05:41:33;;;;;;;10.50;6.80;;;;;;;17.07;53.98;100903.89;105399;1254;64928;-55
2024/04/10 05:44:00;;;;;;;9.60;6.60;;;;;;;17.17;53.39;100907.48;106419;1254;61775;-56
2024/04/10 05:46:27;;;;;;;11.90;7.00;;;;;;;17.28;52.97;100909.84;106013;1256;64963;-52
2024/04/10 05:48:54;;;;;;;11.00;7.70;;;;;;;17.39;52.89;100913.02;106493;1253;61354;-53
2024/04/10 05:51:21;;;;;;;12.90;7.40;;;;;;;17.49;52.41;100914.25;105509;1254;61369;-52
2024/04/10 05:53:48;;;;;;;10.40;7.40;;;;;;;17.58;51.78;100915.59;105294;1254;66500;-55
2024/04/10 05:56:16;;;;;;;10.10;7.00;;;;;;;17.68;51.09;100917.02;106441;1254;61794;-52
2024/04/10 05:58:43;;;;;;;11.80;6.90;;;;;;;17.75;50.27;100920.52;105425;1254;63791;-55
2024/04/10 06:01:10;;;;;;;10.10;6.60;;;;;;;17.82;49.52;100920.88;105317;1253;61233;-50
2024/04/10 06:03:37;;;;;;;9.90;6.20;;;;;;;17.90;48.69;100926.11;107339;1256;61269;-50
2024/04/10 06:06:09;;;;;;;10.90;6.80;;;;;;;17.99;47.94;100923.45;105860;1253;65862;-51
2024/04/10 06:08:36;;;;;;;9.80;5.60;;;;;;;18.08;47.54;100922.88;105683;1253;62567;-53
2024/04/10 06:11:03;;;;;;;8.30;6.00;;;;;;;18.17;46.94;100927.08;105909;1257;64415;-51
2024/04/10 06:13:31;;;;;;;10.20;6.50;;;;;;;18.25;46.59;100924.11;105973;1254;61429;-49
2024/04/10 06:16:02;;;;;;;8.40;6.40;;;;;;;18.35;46.39;100925.75;106803;1252;61260;-53
2024/04/10 06:18:29;;;;;;;11.10;6.60;;;;;;;18.45;46.32;100924.17;105888;1252;65544;-55
2024/04/10 06:20:58;;;;;;;10.80;6.10;;;;;;;18.54;45.89;100923.57;105817;1259;61782;-59
2024/04/10 06:23:29;;;;;;;12.80;6.50;;;;;;;18.66;45.05;100920.56;105420;1253;63827;-60
2024/04/10 06:25:56;;;;;;;8.00;5.50;;;;;;;18.80;44.19;100919.80;106003;1254;62154;-60
2024/04/10 06:28:25;;;;;;;9.10;5.30;;;;;;;18.90;44.07;100920.65;106116;1253;61164;-59
2024/04/10 06:31:02;;;;;;;9.20;5.10;;;;;;;19.01;44.23;100919.66;106206;1254;66193;-60
2024/04/10 06:33:30;;;;;;;8.20;5.00;;;;;;;19.12;44.17;100919.60;107475;1253;61355;-57
2024/04/10 06:36:04;;;;;;;8.20;5.20;;;;;;;19.21;44.03;100918.44;106789;1254;64369;-57
2024/04/10 06:38:32;;;;;;;12.00;5.10;;;;;;;19.29;43.87;100919.87;106803;1253;61277;-56
2024/04/10 06:41:01;;;;;;;6.90;4.70;;;;;;;19.37;43.41;100923.04;105398;1254;61246;-58
2024/04/10 06:43:29;;;;;;;8.40;4.60;;;;;;;19.47;43.16;100922.58;105802;1256;65910;-57
2024/04/10 06:46:01;;;;;;;7.40;4.90;;;;;;;19.56;43.01;100922.86;106043;1254;62050;-56
2024/04/10 06:48:28;;;;;;;9.70;4.30;;;;;;;19.65;42.76;100929.98;106070;1256;64400;-57
2024/04/10 06:50:56;;;;;;;7.70;5.40;;;;;;;19.77;42.52;100930.52;106028;1254;61278;-57
2024/04/10 06:53:24;;;;;;;10.50;5.30;;;;;;;19.87;42.92;100932.48;105891;1259;61743;-58
2024/04/10 06:56:01;;;;;;;8.50;5.50;;;;;;;19.94;42.76;100927.89;105378;1256;66142;-58
2024/04/10 06:58:29;;;;;;;7.60;4.60;;;;;;;20.03;42.68;100931.50;108331;1253;61491;-57
2024/04/10 07:01:04;;;;;;;7.10;4.50;;;;;;;20.14;42.46;100933.20;107630;1252;64436;-54
2024/04/10 07:03:33;;;;;;;9.10;4.80;;;;;;;20.25;42.38;100931.85;105896;1254;61400;-54
2024/04/10 07:06:10;;;;;;;9.10;5.00;;;;;;;20.32;42.34;100935.23;106769;1253;61763;-54
2024/04/10 07:08:39;;;;;;;8.30;4.90;;;;;;;20.36;41.97;100942.11;106627;1253;65848;-55
2024/04/10 07:11:20;;;;;;;7.50;5.20;;;;;;;20.37;41.65;100943.02;105687;1254;63134;-53
2024/04/10 07:13:48;;;;;;;10.40;5.70;;;;;;;20.39;41.55;100944.58;105401;1256;62867;-53
2024/04/10 07:16:16;;;;;;;8.50;5.00;;;;;;;20.42;41.62;100943.92;105371;1254;61290;-55
2024/04/10 07:18:44;;;;;;;8.00;4.90;;;;;;;20.46;41.73;100944.58;105313;1254;61223;-53
2024/04/10 07:21:12;;;;;;;8.80;5.00;;;;;;;20.51;41.80;100943.09;105576;1256;65994;-55
2024/04/10 07:23:41;;;;;;;9.70;5.20;;;;;;;20.57;41.67;100943.63;105561;1254;62088;-53
2024/04/10 07:26:22;;;;;;;7.30;4.80;;;;;;;20.64;41.72;100948.06;105365;1251;62753;-55
2024/04/10 07:28:52;;;;;;;12.70;5.20;;;;;;;20.74;41.51;100950.65;105574;1254;61243;-53
2024/04/10 07:31:21;;;;;;;8.60;5.00;;;;;;;20.85;41.46;100952.66;105387;1256;61327;-62
2024/04/10 07:33:48;;;;;;;8.60;5.00;;;;;;;20.93;41.30;100954.84;106188;1256;65856;-61
2024/04/10 07:36:18;;;;;;;7.00;4.60;;;;;;;21.03;40.87;100958.19;105301;1257;61250;-60
2024/04/10 07:38:46;;;;;;;8.30;4.90;;;;;;;21.13;40.49;100958.36;109213;1252;64160;-60
2024/04/10 07:41:14;;;;;;;7.30;4.30;;;;;;;21.22;40.51;100959.27;108041;1256;61339;-60
2024/04/10 07:43:41;;;;;;;6.50;3.90;;;;;;;21.32;40.32;100962.49;109259;1253;59174;-61
2024/04/10 07:46:15;;;;;;;9.40;4.30;;;;;;;21.42;39.79;100964.57;109329;1253;67245;-61
2024/04/10 07:48:45;;;;;;;6.10;4.10;;;;;;;21.54;39.70;100962.65;107137;1254;62348;-60
2024/04/10 07:51:15;;;;;;;7.30;3.90;;;;;;;21.65;39.29;100960.45;106190;1254;65460;-67
2024/04/10 07:53:42;;;;;;;8.70;4.50;;;;;;;21.77;39.07;100963.21;105132;1252;61289;-60
2024/04/10 07:56:11;;;;;;;7.10;4.10;;;;;;;21.86;38.74;100961.34;109281;1252;59167;-70
2024/04/10 07:58:39;;;;;;;11.50;5.00;;;;;;;21.96;38.40;100958.93;109260;1252;65903;-71
2024/04/10 08:01:06;;;;;;;9.00;3.50;;;;;;;22.05;38.05;100959.64;109307;1252;62240;-71
2024/04/10 08:03:33;;;;;;;6.90;3.90;;;;;;;22.15;37.93;100952.63;106587;1254;63724;-70
2024/04/10 08:06:04;;;;;;;9.10;4.20;;;;;;;22.25;37.68;100948.40;105895;1252;61366;-70
2024/04/10 08:08:32;;;;;;;7.30;4.40;;;;;;;22.34;37.53;100946.08;105770;1254;61260;-68
2024/04/10 08:11:00;;;;;;;5.60;3.60;;;;;;;22.44;37.64;100945.84;105877;1252;66050;-65
2024/04/10 08:13:30;;;;;;;8.50;4.10;;;;;;;22.54;37.10;100945.17;105995;1254;62009;-69
2024/04/10 08:15:59;;;;;;;7.10;3.90;;;;;;;22.63;36.79;100940.40;105919;1256;62752;-72
2024/04/10 08:18:29;;;;;;;7.30;3.70;;;;;;;22.72;36.33;100941.21;105458;1256;61394;-69
2024/04/10 08:21:06;;;;;;;8.20;4.10;;;;;;;22.83;35.89;100942.08;106887;1254;61158;-68
2024/04/10 08:23:33;;;;;;;13.10;4.60;;;;;;;22.92;35.55;100942.33;105753;1257;65916;-64
2024/04/10 08:26:18;;;;;;;7.30;3.40;;;;;;;23.00;35.32;100940.80;105743;1253;61619;-67
2024/04/10 08:28:49;;;;;;;6.40;3.10;;;;;;;23.06;34.97;100939.73;105321;1254;64113;-70
2024/04/10 08:31:20;;;;;;;7.80;3.60;;;;;;;23.11;34.60;100936.65;105523;1254;61269;-70
2024/04/10 08:34:13;;;;;;;5.60;3.10;;;;;;;23.15;34.47;100934.63;105463;1256;61633;-66
2024/04/10 08:36:40;;;;;;;6.80;3.40;;;;;;;23.22;34.20;100935.83;106358;1253;64813;-69
2024/04/10 08:39:07;;;;;;;10.50;3.90;;;;;;;23.28;34.21;100935.59;105731;1254;61614;-69
2024/04/10 08:41:34;;;;;;;8.70;3.50;;;;;;;23.35;34.34;100937.73;106690;1254;67054;-72
2024/04/10 08:44:02;;;;;;;6.20;3.20;;;;;;;23.44;34.07;100933.91;105536;1259;61433;-68
2024/04/10 08:46:29;;;;;;;5.70;2.90;;;;;;;23.50;33.52;100928.51;105761;1259;61276;-69
2024/04/10 08:48:57;;;;;;;6.70;3.40;;;;;;;23.58;33.56;100927.70;105240;1259;74892;-75
2024/04/10 08:51:25;;;;;;;6.00;3.40;;;;;;;23.67;33.90;100931.48;106054;1257;62783;-63
2024/04/10 08:53:53;;;;;;;6.20;3.30;;;;;;;23.76;33.81;100931.13;105473;1257;64018;-73
2024/04/10 08:56:20;;;;;;;5.50;2.80;;;;;;;23.84;33.73;100932.63;105988;1254;61298;-71
2024/04/10 08:58:47;;;;;;;9.10;3.50;;;;;;;23.90;33.65;100936.38;106192;1254;61263;-65
2024/04/10 09:01:27;;;;;;;6.10;3.30;;;;;;;23.95;33.35;100933.89;105561;1257;66475;-71
2024/04/10 09:03:55;;;;;;;8.30;3.40;;;;;;;24.02;33.41;100930.52;105845;1256;61238;-69
2024/04/10 09:06:22;;;;;;;9.50;3.40;;;;;;;24.08;33.52;100931.47;109248;1253;63839;-70
2024/04/10 09:08:59;;;;;;;5.90;3.50;;;;;;;24.17;33.55;100932.80;109281;1253;59534;-66
2024/04/10 09:11:26;;;;;;;7.40;3.50;;;;;;;24.28;33.43;100936.59;109364;1252;59694;-69
2024/04/10 09:14:10;;;;;;;7.00;3.40;;;;;;;24.40;32.89;100933.52;109296;1253;64934;-69
2024/04/10 09:16:37;;;;;;;6.30;3.80;;;;;;;24.51;32.36;100932.09;109328;1256;62949;-64
2024/04/10 09:19:08;;;;;;;7.30;3.50;;;;;;;24.58;32.03;100927.96;109293;1254;64017;-73
2024/04/10 09:21:41;;;;;;;7.20;3.50;;;;;;;24.63;32.18;100927.03;106733;1253;61407;-68
2024/04/10 09:24:13;;;;;;;8.10;3.60;;;;;;;24.71;31.91;100930.20;106637;1254;61789;-71
2024/04/10 09:26:43;;;;;;;9.40;4.30;;;;;;;24.79;31.99;100933.48;105362;1256;67271;-70
2024/04/10 09:29:12;;;;;;;5.70;3.20;;;;;;;24.89;32.68;100930.98;108117;1254;62800;-65
2024/04/10 09:31:40;;;;;;;6.90;3.50;;;;;;;25.04;32.23;100926.64;105716;1256;64089;-68
2024/04/10 09:34:07;;;;;;;5.30;3.20;;;;;;;25.16;31.75;100924.88;105583;1254;61352;-65
2024/04/10 09:36:34;;;;;;;5.90;3.40;;;;;;;25.26;31.42;100924.54;105211;1259;62183;-68
2024/04/10 09:39:01;;;;;;;6.10;3.60;;;;;;;25.34;31.10;100921.31;105220;1256;66080;-68
2024/04/10 09:41:31;;;;;;;6.90;3.50;;;;;;;25.39;30.74;100916.79;106834;1256;61252;-67
2024/04/10 09:43:58;;;;;;;6.70;3.80;;;;;;;25.40;30.92;100922.21;105784;1257;63817;-71
2024/04/10 09:46:34;;;;;;;8.20;3.30;;;;;;;25.47;30.74;100925.16;108569;1254;59391;-67
2024/04/10 09:49:13;;;;;;;6.80;3.20;;;;;;;25.62;30.32;100919.59;107475;1256;61234;-71
2024/04/10 09:51:42;;;;;;;8.60;4.20;;;;;;;25.77;30.42;100920.11;105612;1256;66061;-65
2024/04/10 09:54:10;;;;;;;10.70;4.90;;;;;;;25.90;30.45;100919.38;108914;1254;61247;-59
2024/04/10 09:56:39;;;;;;;7.90;4.70;;;;;;;26.04;30.53;100922.27;108133;1254;65073;-69
2024/04/10 09:59:09;;;;;;;8.80;4.70;;;;;;;26.15;30.11;100919.36;105601;1254;61344;-63
2024/04/10 10:01:38;;;;;;;6.80;4.60;;;;;;;26.26;29.67;100919.16;105720;1254;61278;-61
2024/04/10 10:04:05;;;;;;;7.40;3.40;;;;;;;26.37;28.60;100919.95;105635;1256;66100;-62
2024/04/10 10:06:34;;;;;;;5.30;3.20;;;;;;;26.47;28.00;100916.79;106896;1256;61274;-59
2024/04/10 10:09:01;;;;;;;7.60;3.40;;;;;;;26.54;27.51;100911.20;105812;1254;64540;-62
2024/04/10 10:11:28;;;;;;;5.50;3.50;;;;;;;26.60;28.12;100908.67;105184;1254;61406;-64
2024/04/10 10:13:59;;;;;;;7.50;3.40;;;;;;;26.69;27.84;100904.25;106760;1254;61353;-58
2024/04/10 10:16:27;;;;;;;7.70;3.30;;;;;;;26.77;27.93;100903.61;109304;1253;65736;-60
2024/04/10 10:19:05;;;;;;;11.80;3.80;;;;;;;26.87;28.03;100902.17;109332;1254;60233;-60
2024/04/10 10:21:32;;;;;;;5.70;3.30;;;;;;;26.98;27.60;100896.36;109329;1251;62692;-59
2024/04/10 10:24:04;;;;;;;7.00;3.30;;;;;;;27.09;27.53;100896.02;109311;1252;59499;-63
2024/04/10 10:26:31;;;;;;;7.50;3.40;;;;;;;27.18;27.13;100892.02;109375;1251;58861;-63
2024/04/10 10:29:05;;;;;;;7.50;2.90;;;;;;;27.26;26.70;100894.69;109299;1254;64743;-61
2024/04/10 10:31:36;;;;;;;5.90;3.30;;;;;;;27.33;26.32;100900.23;106705;1254;61878;-64
2024/04/10 10:34:10;;;;;;;6.60;3.30;;;;;;;27.38;26.60;100898.23;105245;1254;64032;-62
2024/04/10 10:36:40;;;;;;;5.70;3.10;;;;;;;27.44;26.46;100898.71;105651;1254;61249;-59
2024/04/10 10:39:15;;;;;;;5.90;3.20;;;;;;;27.51;27.05;100891.74;105443;1251;61281;-64
2024/04/10 10:41:42;;;;;;;5.90;3.10;;;;;;;27.61;27.24;100893.27;105580;1256;65860;-59
2024/04/10 10:44:10;;;;;;;6.30;3.40;;;;;;;27.69;26.69;100893.35;105292;1254;62045;-59
2024/04/10 10:46:37;;;;;;;5.30;3.30;;;;;;;27.75;26.27;100893.58;105820;1254;64053;-70
2024/04/10 10:49:04;;;;;;;6.90;3.30;;;;;;;27.79;26.59;100890.46;106479;1257;61233;-73
2024/04/10 10:51:31;;;;;;;5.80;3.10;;;;;;;27.83;26.70;100888.80;105825;1254;61246;-60
2024/04/10 10:53:58;;;;;;;8.60;3.00;;;;;;;27.89;26.54;100885.08;105369;1256;66087;-70
2024/04/10 10:56:26;;;;;;;7.10;3.40;;;;;;;27.95;25.95;100886.19;106025;1254;62081;-70
2024/04/10 10:58:53;;;;;;;6.30;3.30;;;;;;;28.00;25.76;100885.64;109105;1259;64297;-70
2024/04/10 11:01:20;;;;;;;8.40;3.60;;;;;;;28.03;25.19;100887.45;109282;1254;59239;-75
2024/04/10 11:03:47;;;;;;;5.80;3.30;;;;;;;28.03;25.01;100890.23;109191;1253;59107;-68
2024/04/10 11:06:16;;;;;;;6.70;3.10;;;;;;;28.03;24.94;100891.23;109375;1254;64837;-60
2024/04/10 11:08:43;;;;;;;6.20;2.60;;;;;;;28.04;24.94;100890.16;109320;1254;60407;-74
2024/04/10 11:11:13;;;;;;;8.80;3.60;;;;;;;28.08;24.71;100889.83;106604;1254;73705;-73
2024/04/10 11:13:50;;;;;;;6.80;2.90;;;;;;;28.12;24.30;100886.64;107669;1254;62053;-75
2024/04/10 11:16:27;;;;;;;6.20;3.20;;;;;;;28.17;25.08;100882.94;106238;1255;61262;-70
2024/04/10 11:18:54;;;;;;;5.00;2.90;;;;;;;28.26;25.78;100881.48;106797;1255;66054;-70
2024/04/10 11:21:24;;;;;;;7.30;3.60;;;;;;;28.36;25.11;100880.86;106370;1256;73013;-72
2024/04/10 11:23:51;;;;;;;8.00;3.40;;;;;;;28.45;24.65;100882.07;106383;1256;63897;-71